createdAt,value
2019-05-28T00:01:33.321Z,13.50
2019-05-28T00:04:01.348Z,13.50
2019-05-28T00:06:28.079Z,13.50
2019-05-28T00:08:54.732Z,13.50
2019-05-28T00:11:21.124Z,13.40
2019-05-28T00:13:47.695Z,13.40
2019-05-28T00:16:14.525Z,13.40
2019-05-28T00:18:41.254Z,13.30
2019-05-28T00:21:07.721Z,13.30
2019-05-28T00:23:34.253Z,13.30
2019-05-28T00:26:00.946Z,13.20
2019-05-28T00:28:27.475Z,13.20
2019-05-28T00:30:54.023Z,13.20
2019-05-28T00:33:20.443Z,13.20
2019-05-28T00:35:47.162Z,13.10
2019-05-28T00:38:13.882Z,13.10
2019-05-28T00:40:41.653Z,13.00
2019-05-28T00:43:08.060Z,13.00
2019-05-28T00:45:34.595Z,13.00
2019-05-28T00:48:01.295Z,13.00
2019-05-28T00:50:28.057Z,13.00
2019-05-28T00:52:54.835Z,12.90
2019-05-28T00:55:21.624Z,12.90
2019-05-28T00:57:48.753Z,12.90
2019-05-28T01:00:15.949Z,12.90
2019-05-28T01:02:42.372Z,12.90
2019-05-28T01:05:09.708Z,12.90
2019-05-28T01:07:36.128Z,12.90
2019-05-28T01:10:08.935Z,12.90
2019-05-28T01:12:35.393Z,12.80
2019-05-28T01:15:03.019Z,12.90
2019-05-28T01:17:29.483Z,12.80
2019-05-28T01:19:55.883Z,12.80
2019-05-28T01:22:22.486Z,12.80
2019-05-28T01:24:48.901Z,12.80
2019-05-28T01:27:15.454Z,12.90
2019-05-28T01:29:41.908Z,12.80
2019-05-28T01:32:08.565Z,12.80
2019-05-28T01:34:35.006Z,12.80
2019-05-28T01:37:01.793Z,12.80
2019-05-28T01:39:29.225Z,12.80
2019-05-28T01:41:55.976Z,12.70
2019-05-28T01:44:22.495Z,12.70
2019-05-28T01:46:48.957Z,12.70
2019-05-28T01:49:15.461Z,12.70
2019-05-28T01:51:42.171Z,12.70
2019-05-28T01:54:08.617Z,12.70
2019-05-28T01:56:35.071Z,12.70
2019-05-28T01:59:01.534Z,12.60
2019-05-28T02:01:28.116Z,12.60
2019-05-28T02:03:54.950Z,12.60
2019-05-28T02:06:21.403Z,12.60
2019-05-28T02:08:47.886Z,12.50
2019-05-28T02:11:14.371Z,12.50
2019-05-28T02:13:40.982Z,12.50
2019-05-28T02:16:07.467Z,12.50
2019-05-28T02:18:34.191Z,12.40
2019-05-28T02:21:01.074Z,12.40
2019-05-28T02:23:27.747Z,12.40
2019-05-28T02:25:54.178Z,12.40
2019-05-28T02:28:20.933Z,12.40
2019-05-28T02:30:47.402Z,12.30
2019-05-28T02:33:14.015Z,12.30
2019-05-28T02:35:40.554Z,12.30
2019-05-28T02:38:08.008Z,12.30
2019-05-28T02:40:34.566Z,12.30
2019-05-28T02:43:01.634Z,12.20
2019-05-28T02:45:28.525Z,12.20
2019-05-28T02:47:55.450Z,12.20
2019-05-28T02:50:43.847Z,12.20
2019-05-28T02:53:10.704Z,12.20
2019-05-28T02:55:38.469Z,12.20
2019-05-28T02:58:05.891Z,12.10
2019-05-28T03:00:32.425Z,12.10
2019-05-28T03:03:02.711Z,12.10
2019-05-28T03:05:30.457Z,12.10
2019-05-28T03:07:57.107Z,12.10
2019-05-28T03:10:58.502Z,12.10
2019-05-28T03:13:01.267Z,12.10
2019-05-28T03:15:28.069Z,12.10
2019-05-28T03:17:55.368Z,12.10
2019-05-28T03:20:22.889Z,12.10
2019-05-28T03:22:50.727Z,12.10
2019-05-28T03:25:19.044Z,12.10
2019-05-28T03:27:45.822Z,12.10
2019-05-28T03:30:12.519Z,12.00
2019-05-28T03:32:38.958Z,12.00
2019-05-28T03:35:05.666Z,12.00
2019-05-28T03:37:34.386Z,12.00
2019-05-28T03:40:04.965Z,12.00
2019-05-28T03:42:31.414Z,11.90
2019-05-28T03:44:58.172Z,11.90
2019-05-28T03:47:24.831Z,11.90
2019-05-28T03:49:51.322Z,11.90
2019-05-28T03:52:18.090Z,11.90
2019-05-28T03:54:44.858Z,11.90
2019-05-28T03:57:11.310Z,11.90
2019-05-28T03:59:37.903Z,11.90
2019-05-28T04:02:04.647Z,11.90
2019-05-28T04:04:31.116Z,11.90
2019-05-28T04:06:57.842Z,11.90
2019-05-28T04:09:24.299Z,11.90
2019-05-28T04:11:51.742Z,11.90
2019-05-28T04:14:18.309Z,11.90
2019-05-28T04:16:45.027Z,12.00
2019-05-28T04:19:11.454Z,12.00
2019-05-28T04:21:37.934Z,12.00
2019-05-28T04:24:04.350Z,12.00
2019-05-28T04:26:31.018Z,12.00
2019-05-28T04:28:57.910Z,12.00
2019-05-28T04:31:24.327Z,12.00
2019-05-28T04:33:51.125Z,12.00
2019-05-28T04:36:17.722Z,12.00
2019-05-28T04:38:44.641Z,12.00
2019-05-28T04:41:11.415Z,12.00
2019-05-28T04:43:37.830Z,12.00
2019-05-28T04:46:04.363Z,12.00
2019-05-28T04:48:31.823Z,12.00
2019-05-28T04:50:58.246Z,12.00
2019-05-28T04:53:24.715Z,12.00
2019-05-28T04:55:51.437Z,12.00
2019-05-28T04:58:17.923Z,12.10
2019-05-28T05:00:44.390Z,12.00
2019-05-28T05:03:12.565Z,12.00
2019-05-28T05:05:39.031Z,12.00
2019-05-28T05:08:05.758Z,12.00
2019-05-28T05:10:32.530Z,12.00
2019-05-28T05:12:59.981Z,12.10
2019-05-28T05:15:26.503Z,12.10
2019-05-28T05:17:52.926Z,12.10
2019-05-28T05:20:19.559Z,12.10
2019-05-28T05:22:45.987Z,12.10
2019-05-28T05:25:12.748Z,12.10
2019-05-28T05:27:39.185Z,12.10
2019-05-28T05:30:06.215Z,12.10
2019-05-28T05:32:39.242Z,12.10
2019-05-28T05:35:05.929Z,12.10
2019-05-28T05:37:32.448Z,12.10
2019-05-28T05:39:58.861Z,12.10
2019-05-28T05:42:25.362Z,12.10
2019-05-28T05:44:51.921Z,12.10
2019-05-28T05:47:18.429Z,12.20
2019-05-28T05:49:45.195Z,12.20
2019-05-28T05:52:11.793Z,12.20
2019-05-28T05:54:38.244Z,12.20
2019-05-28T05:57:04.702Z,12.20
2019-05-28T05:59:31.135Z,12.30
2019-05-28T06:01:57.569Z,12.30
2019-05-28T06:04:24.329Z,12.30
2019-05-28T06:06:50.740Z,12.30
2019-05-28T06:09:17.828Z,12.30
2019-05-28T06:11:44.532Z,12.40
2019-05-28T06:14:10.969Z,12.40
2019-05-28T06:16:37.415Z,12.40
2019-05-28T06:19:03.889Z,12.50
2019-05-28T06:21:30.525Z,12.50
2019-05-28T06:23:57.015Z,12.50
2019-05-28T06:26:23.459Z,12.50
2019-05-28T06:28:50.064Z,12.50
2019-05-28T06:31:17.548Z,12.50
2019-05-28T06:33:56.019Z,12.50
2019-05-28T06:36:12.580Z,12.50
2019-05-28T06:38:39.417Z,12.50
2019-05-28T06:41:05.887Z,12.50
2019-05-28T06:43:32.730Z,12.50
2019-05-28T06:45:59.168Z,12.50
2019-05-28T06:48:25.918Z,12.50
2019-05-28T06:50:52.764Z,12.60
2019-05-28T06:53:19.190Z,12.60
2019-05-28T06:55:45.672Z,12.70
2019-05-28T06:58:12.131Z,12.80
2019-05-28T07:00:38.622Z,12.90
2019-05-28T07:03:05.033Z,13.10
2019-05-28T07:05:32.929Z,13.20
2019-05-28T07:07:59.339Z,13.40
2019-05-28T07:10:26.101Z,13.60
2019-05-28T07:12:52.854Z,13.80
2019-05-28T07:15:20.506Z,13.90
2019-05-28T07:17:47.363Z,14.00
2019-05-28T07:20:14.080Z,14.10
2019-05-28T07:22:40.642Z,14.30
2019-05-28T07:25:07.275Z,14.40
2019-05-28T07:27:34.111Z,14.60
2019-05-28T07:30:00.580Z,14.70
2019-05-28T07:32:28.387Z,14.80
2019-05-28T07:34:55.151Z,14.80
2019-05-28T07:37:21.726Z,14.80
2019-05-28T07:39:48.291Z,14.80
2019-05-28T07:42:29.847Z,14.80
2019-05-28T07:44:43.538Z,14.70
2019-05-28T07:47:11.159Z,14.70
2019-05-28T07:49:38.020Z,14.60
2019-05-28T07:52:04.738Z,14.50
2019-05-28T07:54:31.480Z,14.40
2019-05-28T07:56:58.056Z,14.50
2019-05-28T07:59:24.515Z,14.50
2019-05-28T08:01:51.278Z,14.70
2019-05-28T08:04:17.738Z,14.80
2019-05-28T08:06:54.364Z,15.00
2019-05-28T08:09:13.054Z,15.20
2019-05-28T08:11:39.509Z,15.30
2019-05-28T08:14:05.950Z,15.40
2019-05-28T08:16:32.855Z,15.40
2019-05-28T08:18:59.429Z,15.50
2019-05-28T08:21:26.038Z,15.50
2019-05-28T08:23:52.733Z,15.40
2019-05-28T08:26:19.415Z,15.40
2019-05-28T08:28:46.942Z,15.40
2019-05-28T08:31:16.410Z,15.50
2019-05-28T08:33:42.210Z,15.50
2019-05-28T08:36:08.850Z,15.60
2019-05-28T08:38:35.412Z,15.90
2019-05-28T08:41:02.023Z,16.20
2019-05-28T08:43:28.895Z,16.40
2019-05-28T08:45:55.753Z,16.60
2019-05-28T08:48:22.497Z,16.70
2019-05-28T08:50:48.943Z,16.80
2019-05-28T08:53:15.598Z,17.20
2019-05-28T08:55:42.655Z,17.40
2019-05-28T08:58:09.376Z,17.40
2019-05-28T09:00:41.780Z,17.50
2019-05-28T09:03:09.739Z,17.70
2019-05-28T09:05:36.621Z,17.80
2019-05-28T09:08:04.652Z,17.90
2019-05-28T09:10:32.761Z,17.90
2019-05-28T09:12:59.601Z,17.90
2019-05-28T09:15:26.140Z,17.90
2019-05-28T09:17:52.587Z,17.90
2019-05-28T09:20:19.547Z,17.90
2019-05-28T09:22:46.393Z,17.90
2019-05-28T09:25:13.918Z,17.90
2019-05-28T09:27:40.488Z,18.10
2019-05-28T09:30:07.731Z,18.10
2019-05-28T09:32:34.252Z,18.10
2019-05-28T09:35:02.525Z,17.90
2019-05-28T09:37:28.951Z,17.60
2019-05-28T09:39:55.419Z,17.40
2019-05-28T09:42:21.945Z,17.30
2019-05-28T09:44:48.682Z,17.10
2019-05-28T09:47:15.303Z,17.00
2019-05-28T09:49:42.056Z,16.90
2019-05-28T09:52:08.598Z,16.80
2019-05-28T09:54:35.343Z,16.70
2019-05-28T09:57:01.804Z,16.70
2019-05-28T09:59:40.727Z,16.80
2019-05-28T10:01:57.245Z,17.00
2019-05-28T10:04:43.057Z,17.20
2019-05-28T10:06:52.276Z,17.40
2019-05-28T10:09:18.745Z,17.50
2019-05-28T10:11:45.314Z,17.50
2019-05-28T10:14:12.289Z,17.60
2019-05-28T10:16:39.009Z,17.60
2019-05-28T10:19:05.461Z,17.60
2019-05-28T10:21:31.894Z,17.80
2019-05-28T10:23:58.455Z,17.80
2019-05-28T10:26:25.094Z,17.90
2019-05-28T10:28:51.571Z,17.90
2019-05-28T10:31:18.319Z,17.80
2019-05-28T10:33:45.091Z,17.80
2019-05-28T10:36:11.717Z,17.80
2019-05-28T10:38:39.129Z,18.00
2019-05-28T10:41:05.609Z,18.30
2019-05-28T10:43:33.326Z,18.30
2019-05-28T10:46:00.017Z,18.00
2019-05-28T10:48:26.923Z,17.80
2019-05-28T10:50:53.355Z,17.50
2019-05-28T10:53:19.799Z,17.40
2019-05-28T10:55:46.546Z,17.30
2019-05-28T10:58:13.021Z,17.20
2019-05-28T11:00:39.634Z,17.30
2019-05-28T11:03:06.445Z,17.20
2019-05-28T11:05:33.272Z,17.10
2019-05-28T11:07:59.851Z,16.90
2019-05-28T11:10:26.603Z,16.90
2019-05-28T11:12:53.158Z,16.60
2019-05-28T11:15:23.610Z,16.60
2019-05-28T11:17:48.719Z,16.40
2019-05-28T11:20:17.345Z,16.30
2019-05-28T11:22:44.204Z,16.20
2019-05-28T11:25:10.949Z,16.10
2019-05-28T11:27:37.397Z,16.20
2019-05-28T11:30:12.138Z,16.20
2019-05-28T11:32:38.552Z,16.10
2019-05-28T11:35:06.337Z,16.10
2019-05-28T11:37:32.912Z,16.10
2019-05-28T11:39:59.482Z,16.10
2019-05-28T11:42:27.033Z,16.00
2019-05-28T11:44:53.474Z,15.90
2019-05-28T11:47:20.339Z,15.70
2019-05-28T11:49:46.923Z,15.70
2019-05-28T11:52:13.465Z,15.70
2019-05-28T11:54:39.995Z,15.70
2019-05-28T11:57:06.733Z,15.80
2019-05-28T11:59:33.472Z,15.80
2019-05-28T12:02:00.075Z,15.90
2019-05-28T12:04:27.798Z,16.00
2019-05-28T12:06:54.316Z,16.00
2019-05-28T12:09:21.095Z,16.00
2019-05-28T12:11:47.606Z,16.00
2019-05-28T12:14:17.675Z,15.90
2019-05-28T12:16:44.277Z,15.80
2019-05-28T12:19:13.254Z,15.70
2019-05-28T12:21:40.987Z,15.80
2019-05-28T12:24:09.452Z,15.70
2019-05-28T12:26:36.273Z,15.60
2019-05-28T12:29:03.995Z,15.50
2019-05-28T12:31:31.432Z,15.50
2019-05-28T12:33:58.196Z,15.50
2019-05-28T12:36:25.015Z,15.50
2019-05-28T12:38:52.043Z,15.60
2019-05-28T12:41:18.891Z,15.60
2019-05-28T12:47:44.202Z,16.00
2019-05-28T12:50:19.960Z,16.30
2019-05-28T12:52:40.337Z,16.40
2019-05-28T12:55:07.560Z,16.50
2019-05-28T12:57:34.077Z,16.50
2019-05-28T13:00:01.476Z,16.60
2019-05-28T13:02:29.922Z,16.80
2019-05-28T13:04:56.685Z,16.90
2019-05-28T13:07:23.125Z,17.10
2019-05-28T13:09:49.860Z,17.30
2019-05-28T13:12:16.684Z,17.40
2019-05-28T13:14:43.388Z,17.40
2019-05-28T13:17:10.143Z,17.30
2019-05-28T13:19:36.701Z,17.30
2019-05-28T13:22:03.692Z,17.30
2019-05-28T13:24:30.149Z,17.40
2019-05-28T13:26:56.637Z,17.50
2019-05-28T13:29:23.081Z,17.50
2019-05-28T13:31:49.499Z,17.50
2019-05-28T13:34:15.962Z,17.60
2019-05-28T13:36:42.653Z,17.70
2019-05-28T13:39:09.070Z,18.00
2019-05-28T13:41:35.515Z,18.30
2019-05-28T13:44:02.476Z,18.70
2019-05-28T13:46:29.228Z,18.70
2019-05-28T13:48:55.992Z,18.70
2019-05-28T13:51:22.668Z,18.60
2019-05-28T13:53:49.141Z,18.60
2019-05-28T13:56:17.908Z,18.50
2019-05-28T13:58:44.554Z,18.60
2019-05-28T14:01:11.175Z,18.60
2019-05-28T14:03:37.689Z,18.60
2019-05-28T14:06:04.549Z,18.70
2019-05-28T14:08:45.898Z,18.70
2019-05-28T14:10:59.714Z,18.80
2019-05-28T14:13:26.176Z,19.00
2019-05-28T14:15:52.665Z,19.20
2019-05-28T14:18:21.044Z,19.40
2019-05-28T14:20:47.490Z,19.60
2019-05-28T14:23:14.164Z,19.70
2019-05-28T14:25:42.751Z,19.70
2019-05-28T14:28:09.250Z,19.50
2019-05-28T14:30:36.345Z,19.20
2019-05-28T14:33:04.776Z,19.10
2019-05-28T14:35:31.289Z,19.00
2019-05-28T14:37:57.832Z,19.00
2019-05-28T14:40:25.214Z,19.10
2019-05-28T14:42:52.047Z,19.20
2019-05-28T14:45:19.302Z,19.40
2019-05-28T14:47:46.777Z,19.60
2019-05-28T14:50:16.055Z,19.70
2019-05-28T14:52:42.968Z,19.60
2019-05-28T14:55:12.932Z,19.60
2019-05-28T14:57:39.730Z,19.60
2019-05-28T15:00:08.847Z,19.50
2019-05-28T15:02:48.244Z,19.40
2019-05-28T15:05:15.342Z,19.20
2019-05-28T15:07:42.222Z,19.20
2019-05-28T15:10:10.693Z,19.20
2019-05-28T15:12:40.188Z,19.00
2019-05-28T15:15:10.158Z,18.80
2019-05-28T15:17:36.720Z,18.60
2019-05-28T15:20:07.549Z,18.60
2019-05-28T15:22:34.112Z,18.70
2019-05-28T15:25:08.288Z,18.80
2019-05-28T15:27:36.028Z,18.80
2019-05-28T15:30:07.250Z,18.60
2019-05-28T15:32:36.072Z,18.90
2019-05-28T15:35:05.325Z,19.00
2019-05-28T15:37:31.876Z,19.00
2019-05-28T15:39:58.926Z,18.90
2019-05-28T15:42:25.381Z,18.80
2019-05-28T15:44:52.151Z,18.70
2019-05-28T15:47:18.625Z,18.70
2019-05-28T15:49:46.356Z,18.70
2019-05-28T15:52:12.691Z,18.70
2019-05-28T15:54:39.180Z,18.60
2019-05-28T15:57:05.500Z,18.40
2019-05-28T15:59:32.136Z,18.40
2019-05-28T16:01:58.548Z,18.20
2019-05-28T16:04:26.885Z,18.10
2019-05-28T16:06:54.347Z,18.10
2019-05-28T16:09:25.077Z,18.10
2019-05-28T16:11:51.515Z,18.00
2019-05-28T16:14:19.335Z,17.90
2019-05-28T16:16:46.755Z,18.00
2019-05-28T16:19:25.437Z,18.10
2019-05-28T16:22:00.613Z,18.20
2019-05-28T16:24:27.286Z,18.30
2019-05-28T16:26:55.953Z,18.30
2019-05-28T16:29:24.259Z,18.30
2019-05-28T16:31:51.098Z,18.30
2019-05-28T16:34:17.411Z,18.20
2019-05-28T16:36:45.153Z,18.20
2019-05-28T16:39:11.704Z,18.10
2019-05-28T16:41:38.395Z,17.90
2019-05-28T16:44:05.390Z,17.80
2019-05-28T16:46:31.752Z,17.60
2019-05-28T16:48:58.065Z,17.40
2019-05-28T16:51:25.525Z,17.20
2019-05-28T16:53:52.017Z,17.00
2019-05-28T16:56:18.427Z,16.90
2019-05-28T16:58:45.069Z,16.70
2019-05-28T17:01:22.419Z,16.60
2019-05-28T17:03:40.030Z,16.60
2019-05-28T17:06:06.995Z,16.60
2019-05-28T17:08:34.325Z,16.60
2019-05-28T17:11:17.674Z,16.60
2019-05-28T17:13:48.041Z,16.60
2019-05-28T17:16:16.164Z,16.50
2019-05-28T17:18:47.594Z,16.50
2019-05-28T17:21:14.875Z,16.60
2019-05-28T17:23:41.449Z,16.60
2019-05-28T17:26:10.147Z,16.50
2019-05-28T17:28:36.800Z,16.50
2019-05-28T17:31:04.611Z,16.30
2019-05-28T17:33:31.358Z,16.20
2019-05-28T17:35:58.020Z,16.10
2019-05-28T17:38:25.387Z,16.00
2019-05-28T17:40:52.859Z,16.00
2019-05-28T17:43:19.702Z,15.90
2019-05-28T17:45:46.230Z,15.90
2019-05-28T17:48:12.736Z,15.70
2019-05-28T17:50:39.232Z,15.70
2019-05-28T17:53:06.730Z,15.70
2019-05-28T17:55:33.216Z,15.60
2019-05-28T17:57:59.592Z,15.50
2019-05-28T18:00:26.237Z,15.50
2019-05-28T18:02:52.785Z,15.40
2019-05-28T18:05:19.191Z,15.30
2019-05-28T18:07:45.839Z,15.20
2019-05-28T18:10:14.527Z,15.10
2019-05-28T18:12:40.825Z,15.10
2019-05-28T18:15:07.686Z,15.00
2019-05-28T18:17:34.439Z,14.90
2019-05-28T18:20:00.844Z,14.90
2019-05-28T18:22:27.189Z,14.80
2019-05-28T18:24:54.712Z,14.70
2019-05-28T18:27:21.147Z,14.60
2019-05-28T18:29:47.772Z,14.60
2019-05-28T18:32:15.164Z,14.40
2019-05-28T18:34:41.733Z,14.40
2019-05-28T18:37:09.437Z,14.30
2019-05-28T18:39:35.920Z,14.30
2019-05-28T18:42:02.418Z,14.20
2019-05-28T18:44:28.769Z,14.10
2019-05-28T18:46:55.388Z,14.10
2019-05-28T18:49:21.821Z,14.10
2019-05-28T18:51:48.316Z,14.10
2019-05-28T18:54:14.716Z,14.00
2019-05-28T18:56:41.107Z,14.00
2019-05-28T18:59:07.545Z,13.90
2019-05-28T19:01:33.900Z,13.90
2019-05-28T19:04:02.232Z,13.90
2019-05-28T19:06:28.608Z,13.80
2019-05-28T19:08:55.111Z,13.80
2019-05-28T19:11:36.538Z,13.70
2019-05-28T19:13:51.534Z,13.70
2019-05-28T19:16:18.288Z,13.60
2019-05-28T19:18:44.939Z,13.50
2019-05-28T19:21:11.634Z,13.40
2019-05-28T19:23:39.229Z,13.30
2019-05-28T19:26:05.589Z,13.20
2019-05-28T19:28:32.069Z,13.20
2019-05-28T19:30:58.844Z,13.10
2019-05-28T19:33:25.683Z,13.10
2019-05-28T19:35:52.456Z,13.10
2019-05-28T19:38:19.247Z,13.00
2019-05-28T19:40:45.599Z,13.00
2019-05-28T19:43:12.067Z,12.90
2019-05-28T19:45:39.499Z,12.90
2019-05-28T19:48:06.476Z,12.90
2019-05-28T19:50:33.981Z,12.80
2019-05-28T19:53:40.870Z,12.80
2019-05-28T19:56:07.511Z,12.80
2019-05-28T19:58:33.872Z,12.80
2019-05-28T20:01:00.496Z,12.80
2019-05-28T20:03:27.040Z,12.80
2019-05-28T20:05:54.839Z,12.70
2019-05-28T20:08:22.323Z,12.70
2019-05-28T20:10:50.782Z,12.60
2019-05-28T20:13:17.284Z,12.30
2019-05-28T20:15:44.671Z,11.90
2019-05-28T20:18:26.193Z,11.50
2019-05-28T20:20:41.731Z,11.10
2019-05-28T20:23:08.074Z,10.80
2019-05-28T20:25:34.730Z,10.60
2019-05-28T20:28:00.984Z,10.60
2019-05-28T20:30:27.514Z,10.50
2019-05-28T20:32:55.115Z,10.40
2019-05-28T20:35:21.615Z,10.40
2019-05-28T20:37:48.893Z,10.30
2019-05-28T20:40:16.741Z,10.20
2019-05-28T20:42:43.004Z,10.20
2019-05-28T20:45:11.827Z,10.20
2019-05-28T20:47:38.591Z,10.10
2019-05-28T20:50:06.398Z,10.10
2019-05-28T20:52:34.310Z,10.00
2019-05-28T20:55:01.818Z,10.00
2019-05-28T20:57:28.370Z,10.00
2019-05-28T20:59:55.768Z,9.90
2019-05-28T21:02:22.394Z,9.90
2019-05-28T21:04:48.762Z,9.80
2019-05-28T21:07:15.197Z,9.80
2019-05-28T21:09:42.834Z,9.80
2019-05-28T21:12:09.089Z,9.80
2019-05-28T21:14:36.710Z,9.80
2019-05-28T21:17:03.969Z,9.80
2019-05-28T21:19:30.440Z,9.80
2019-05-28T21:21:57.783Z,9.80
2019-05-28T21:24:24.168Z,9.80
2019-05-28T21:26:52.004Z,9.90
2019-05-28T21:29:18.363Z,9.90
2019-05-28T21:31:44.736Z,9.90
2019-05-28T21:34:10.999Z,9.90
2019-05-28T21:36:38.298Z,9.90
2019-05-28T21:39:06.223Z,9.80
2019-05-28T21:41:32.679Z,9.80
2019-05-28T21:44:00.113Z,9.80
2019-05-28T21:46:27.545Z,9.80
2019-05-28T21:48:54.422Z,9.80
2019-05-28T21:51:22.047Z,9.80
2019-05-28T21:53:48.333Z,9.80
2019-05-28T21:56:15.072Z,9.80
2019-05-28T21:58:41.428Z,9.70
2019-05-28T22:01:14.620Z,9.70
2019-05-28T22:03:41.139Z,9.70
2019-05-28T22:06:07.778Z,9.60
2019-05-28T22:08:34.311Z,9.60
2019-05-28T22:11:01.742Z,9.60
2019-05-28T22:13:28.126Z,9.60
2019-05-28T22:15:54.494Z,9.60
2019-05-28T22:18:20.935Z,9.50
2019-05-28T22:20:47.351Z,9.50
2019-05-28T22:23:13.714Z,9.50
2019-05-28T22:25:40.200Z,9.50
2019-05-28T22:28:07.174Z,9.50
2019-05-28T22:30:34.901Z,9.50
2019-05-28T22:33:02.262Z,9.50
2019-05-28T22:35:28.626Z,9.50
2019-05-28T22:37:54.882Z,9.50
2019-05-28T22:40:22.264Z,9.50
2019-05-28T22:42:48.906Z,9.40
2019-05-28T22:45:15.383Z,9.40
2019-05-28T22:47:41.729Z,9.40
2019-05-28T22:50:19.670Z,9.40
2019-05-28T22:52:37.130Z,9.40
2019-05-28T22:55:08.043Z,9.40
2019-05-28T22:57:34.583Z,9.40
2019-05-28T23:00:00.855Z,9.30
2019-05-28T23:02:27.237Z,9.40
2019-05-28T23:04:53.563Z,9.40
2019-05-28T23:07:19.819Z,9.30
2019-05-28T23:09:46.173Z,9.30
2019-05-28T23:12:12.810Z,9.30
2019-05-28T23:14:39.414Z,9.30
2019-05-28T23:17:06.335Z,9.30
2019-05-28T23:19:32.767Z,9.30
2019-05-28T23:21:59.052Z,9.30
2019-05-28T23:24:25.410Z,9.20
2019-05-28T23:26:53.131Z,9.20
2019-05-28T23:29:19.395Z,9.20
2019-05-28T23:31:46.288Z,9.20
2019-05-28T23:34:12.716Z,9.20
2019-05-28T23:36:39.079Z,9.20
2019-05-28T23:39:05.530Z,9.20
2019-05-28T23:41:31.871Z,9.20
2019-05-28T23:44:02.012Z,9.20
2019-05-28T23:46:26.552Z,9.20
2019-05-28T23:48:52.869Z,9.30
2019-05-28T23:51:19.145Z,9.20
2019-05-28T23:53:45.379Z,9.20
2019-05-28T23:56:11.771Z,9.20
2019-05-28T23:58:38.522Z,9.20
